sensor_id;sensor_type;location;lat;lon;timestamp;temperature;humidity
11239;DHT22;5677;48.488;13.436;2022-12-20T00:01:22;11.30;45.60
11239;DHT22;5677;48.488;13.436;2022-12-20T00:03:50;11.30;45.60
11239;DHT22;5677;48.488;13.436;2022-12-20T00:06:20;11.30;45.50
11239;DHT22;5677;48.488;13.436;2022-12-20T00:08:52;11.30;45.50
11239;DHT22;5677;48.488;13.436;2022-12-20T00:11:19;11.30;45.50
11239;DHT22;5677;48.488;13.436;2022-12-20T00:13:46;11.30;45.50
11239;DHT22;5677;48.488;13.436;2022-12-20T00:16:14;11.30;45.50
11239;DHT22;5677;48.488;13.436;2022-12-20T00:18:41;11.30;45.60
11239;DHT22;5677;48.488;13.436;2022-12-20T00:21:10;11.30;45.50
11239;DHT22;5677;48.488;13.436;2022-12-20T00:23:39;11.30;45.50
11239;DHT22;5677;48.488;13.436;2022-12-20T00:26:07;11.30;45.50
11239;DHT22;5677;48.488;13.436;2022-12-20T00:28:35;11.30;45.50
11239;DHT22;5677;48.488;13.436;2022-12-20T00:31:03;11.30;45.50
11239;DHT22;5677;48.488;13.436;2022-12-20T00:33:31;11.30;45.50
11239;DHT22;5677;48.488;13.436;2022-12-20T00:35:58;11.30;46.20
11239;DHT22;5677;48.488;13.436;2022-12-20T00:38:26;11.30;45.50
11239;DHT22;5677;48.488;13.436;2022-12-20T00:41:05;11.30;45.50
11239;DHT22;5677;48.488;13.436;2022-12-20T00:43:34;11.30;45.40
11239;DHT22;5677;48.488;13.436;2022-12-20T00:46:02;11.30;45.40
11239;DHT22;5677;48.488;13.436;2022-12-20T00:48:30;11.30;45.40
11239;DHT22;5677;48.488;13.436;2022-12-20T00:50:58;11.30;45.40
11239;DHT22;5677;48.488;13.436;2022-12-20T00:53:25;11.30;45.40
11239;DHT22;5677;48.488;13.436;2022-12-20T00:55:51;11.30;45.40
11239;DHT22;5677;48.488;13.436;2022-12-20T00:58:20;11.30;45.40
11239;DHT22;5677;48.488;13.436;2022-12-20T01:00:47;11.30;45.40
11239;DHT22;5677;48.488;13.436;2022-12-20T01:03:13;11.30;45.40
11239;DHT22;5677;48.488;13.436;2022-12-20T01:05:49;11.30;45.30
11239;DHT22;5677;48.488;13.436;2022-12-20T01:08:16;11.30;45.40
11239;DHT22;5677;48.488;13.436;2022-12-20T01:10:42;11.30;45.40
11239;DHT22;5677;48.488;13.436;2022-12-20T01:13:09;11.30;45.30
11239;DHT22;5677;48.488;13.436;2022-12-20T01:15:37;11.30;45.40
11239;DHT22;5677;48.488;13.436;2022-12-20T01:18:04;11.30;45.30
11239;DHT22;5677;48.488;13.436;2022-12-20T01:20:31;11.30;45.30
11239;DHT22;5677;48.488;13.436;2022-12-20T01:22:58;11.30;45.30
11239;DHT22;5677;48.488;13.436;2022-12-20T01:25:24;11.30;45.30
11239;DHT22;5677;48.488;13.436;2022-12-20T01:27:51;11.30;45.30
11239;DHT22;5677;48.488;13.436;2022-12-20T01:30:18;11.30;45.30
11239;DHT22;5677;48.488;13.436;2022-12-20T01:32:46;11.30;45.30
11239;DHT22;5677;48.488;13.436;2022-12-20T01:35:13;11.30;45.30
11239;DHT22;5677;48.488;13.436;2022-12-20T01:37:40;11.30;45.30
11239;DHT22;5677;48.488;13.436;2022-12-20T01:40:08;11.30;45.30
11239;DHT22;5677;48.488;13.436;2022-12-20T01:42:36;11.30;45.30
11239;DHT22;5677;48.488;13.436;2022-12-20T01:45:07;11.30;45.30
11239;DHT22;5677;48.488;13.436;2022-12-20T01:47:35;11.30;45.30
11239;DHT22;5677;48.488;13.436;2022-12-20T01:50:05;11.30;45.30
11239;DHT22;5677;48.488;13.436;2022-12-20T01:52:35;11.30;45.20
11239;DHT22;5677;48.488;13.436;2022-12-20T01:55:08;11.30;45.20
11239;DHT22;5677;48.488;13.436;2022-12-20T01:57:39;11.40;45.20
11239;DHT22;5677;48.488;13.436;2022-12-20T02:00:08;11.30;45.20
11239;DHT22;5677;48.488;13.436;2022-12-20T02:02:35;11.30;45.20
11239;DHT22;5677;48.488;13.436;2022-12-20T02:05:04;11.30;45.20
11239;DHT22;5677;48.488;13.436;2022-12-20T02:07:34;11.30;45.20
11239;DHT22;5677;48.488;13.436;2022-12-20T02:10:02;11.30;45.20
11239;DHT22;5677;48.488;13.436;2022-12-20T02:12:33;11.30;45.30
11239;DHT22;5677;48.488;13.436;2022-12-20T02:15:30;11.30;45.20
11239;DHT22;5677;48.488;13.436;2022-12-20T02:18:06;11.40;45.20
11239;DHT22;5677;48.488;13.436;2022-12-20T02:20:58;11.30;45.20
11239;DHT22;5677;48.488;13.436;2022-12-20T02:23:49;11.30;45.20
11239;DHT22;5677;48.488;13.436;2022-12-20T02:26:41;11.30;45.20
11239;DHT22;5677;48.488;13.436;2022-12-20T02:29:20;11.30;45.20
11239;DHT22;5677;48.488;13.436;2022-12-20T02:31:56;11.30;45.20
11239;DHT22;5677;48.488;13.436;2022-12-20T02:34:25;11.30;45.20
11239;DHT22;5677;48.488;13.436;2022-12-20T02:36:53;11.30;45.10
11239;DHT22;5677;48.488;13.436;2022-12-20T02:39:20;11.40;45.20
11239;DHT22;5677;48.488;13.436;2022-12-20T02:41:51;11.40;45.10
11239;DHT22;5677;48.488;13.436;2022-12-20T02:44:23;11.40;45.10
11239;DHT22;5677;48.488;13.436;2022-12-20T02:47:13;11.30;45.10
11239;DHT22;5677;48.488;13.436;2022-12-20T02:49:43;11.30;45.10
11239;DHT22;5677;48.488;13.436;2022-12-20T02:52:12;11.30;45.10
11239;DHT22;5677;48.488;13.436;2022-12-20T02:54:39;11.30;45.10
11239;DHT22;5677;48.488;13.436;2022-12-20T02:57:11;11.40;45.10
11239;DHT22;5677;48.488;13.436;2022-12-20T02:59:44;11.30;45.10
11239;DHT22;5677;48.488;13.436;2022-12-20T03:02:14;11.40;45.10
11239;DHT22;5677;48.488;13.436;2022-12-20T03:04:42;11.40;45.80
11239;DHT22;5677;48.488;13.436;2022-12-20T03:07:13;11.40;45.10
11239;DHT22;5677;48.488;13.436;2022-12-20T03:09:41;11.30;45.10
11239;DHT22;5677;48.488;13.436;2022-12-20T03:12:09;11.40;45.10
11239;DHT22;5677;48.488;13.436;2022-12-20T03:14:38;11.40;45.10
11239;DHT22;5677;48.488;13.436;2022-12-20T03:17:06;11.30;45.10
11239;DHT22;5677;48.488;13.436;2022-12-20T03:19:34;11.40;45.10
11239;DHT22;5677;48.488;13.436;2022-12-20T03:22:01;11.30;45.10
11239;DHT22;5677;48.488;13.436;2022-12-20T03:24:28;11.30;45.10
11239;DHT22;5677;48.488;13.436;2022-12-20T03:26:57;11.30;45.10
11239;DHT22;5677;48.488;13.436;2022-12-20T03:29:23;11.40;45.10
11239;DHT22;5677;48.488;13.436;2022-12-20T03:31:50;11.40;45.10
11239;DHT22;5677;48.488;13.436;2022-12-20T03:34:17;11.40;45.10
11239;DHT22;5677;48.488;13.436;2022-12-20T03:36:45;11.40;45.20
11239;DHT22;5677;48.488;13.436;2022-12-20T03:39:12;11.40;45.10
11239;DHT22;5677;48.488;13.436;2022-12-20T03:41:38;11.30;45.10
11239;DHT22;5677;48.488;13.436;2022-12-20T03:44:05;11.40;45.10
11239;DHT22;5677;48.488;13.436;2022-12-20T03:46:32;11.30;45.10
11239;DHT22;5677;48.488;13.436;2022-12-20T03:48:59;11.30;45.10
11239;DHT22;5677;48.488;13.436;2022-12-20T03:51:25;11.40;45.10
11239;DHT22;5677;48.488;13.436;2022-12-20T03:53:54;11.40;45.10
11239;DHT22;5677;48.488;13.436;2022-12-20T03:56:21;11.30;45.10
11239;DHT22;5677;48.488;13.436;2022-12-20T03:58:47;11.40;45.10
11239;DHT22;5677;48.488;13.436;2022-12-20T04:01:19;11.40;45.10
11239;DHT22;5677;48.488;13.436;2022-12-20T04:03:46;11.40;45.10
11239;DHT22;5677;48.488;13.436;2022-12-20T04:06:13;11.40;45.10
11239;DHT22;5677;48.488;13.436;2022-12-20T04:08:40;11.40;45.10
11239;DHT22;5677;48.488;13.436;2022-12-20T04:11:08;11.40;45.10
11239;DHT22;5677;48.488;13.436;2022-12-20T04:13:45;11.40;45.20
11239;DHT22;5677;48.488;13.436;2022-12-20T04:16:12;11.40;45.10
11239;DHT22;5677;48.488;13.436;2022-12-20T04:18:40;11.40;45.20
11239;DHT22;5677;48.488;13.436;2022-12-20T04:21:10;11.40;45.10
11239;DHT22;5677;48.488;13.436;2022-12-20T04:23:39;11.40;45.10
11239;DHT22;5677;48.488;13.436;2022-12-20T04:26:09;11.30;45.10
11239;DHT22;5677;48.488;13.436;2022-12-20T04:28:36;11.40;45.10
11239;DHT22;5677;48.488;13.436;2022-12-20T04:31:02;11.40;45.10
11239;DHT22;5677;48.488;13.436;2022-12-20T04:33:30;11.40;45.10
11239;DHT22;5677;48.488;13.436;2022-12-20T04:35:57;11.30;45.10
11239;DHT22;5677;48.488;13.436;2022-12-20T04:38:24;11.30;45.10
11239;DHT22;5677;48.488;13.436;2022-12-20T04:40:53;11.40;45.10
11239;DHT22;5677;48.488;13.436;2022-12-20T04:43:22;11.40;45.20
11239;DHT22;5677;48.488;13.436;2022-12-20T04:45:50;11.40;45.10
11239;DHT22;5677;48.488;13.436;2022-12-20T04:48:18;11.40;45.10
11239;DHT22;5677;48.488;13.436;2022-12-20T04:50:48;11.40;45.10
11239;DHT22;5677;48.488;13.436;2022-12-20T04:53:15;11.40;45.00
11239;DHT22;5677;48.488;13.436;2022-12-20T04:56:00;11.40;45.10
11239;DHT22;5677;48.488;13.436;2022-12-20T04:58:29;11.30;45.00
11239;DHT22;5677;48.488;13.436;2022-12-20T05:00:56;11.40;45.10
11239;DHT22;5677;48.488;13.436;2022-12-20T05:03:25;11.40;45.10
11239;DHT22;5677;48.488;13.436;2022-12-20T05:05:52;11.40;45.10
11239;DHT22;5677;48.488;13.436;2022-12-20T05:08:19;11.40;45.00
11239;DHT22;5677;48.488;13.436;2022-12-20T05:10:47;11.40;45.00
11239;DHT22;5677;48.488;13.436;2022-12-20T05:13:14;11.40;45.10
11239;DHT22;5677;48.488;13.436;2022-12-20T05:15:42;11.40;45.00
11239;DHT22;5677;48.488;13.436;2022-12-20T05:18:09;11.40;45.00
11239;DHT22;5677;48.488;13.436;2022-12-20T05:20:36;11.40;45.00
11239;DHT22;5677;48.488;13.436;2022-12-20T05:23:03;11.40;45.00
11239;DHT22;5677;48.488;13.436;2022-12-20T05:25:49;11.40;45.00
11239;DHT22;5677;48.488;13.436;2022-12-20T05:28:30;11.40;45.00
11239;DHT22;5677;48.488;13.436;2022-12-20T05:30:59;11.40;45.00
11239;DHT22;5677;48.488;13.436;2022-12-20T05:33:26;11.40;45.00
11239;DHT22;5677;48.488;13.436;2022-12-20T05:35:54;11.40;45.10
11239;DHT22;5677;48.488;13.436;2022-12-20T05:38:21;11.40;45.00
11239;DHT22;5677;48.488;13.436;2022-12-20T05:40:48;11.40;45.10
11239;DHT22;5677;48.488;13.436;2022-12-20T05:43:16;11.30;45.00
11239;DHT22;5677;48.488;13.436;2022-12-20T05:45:45;11.40;45.00
11239;DHT22;5677;48.488;13.436;2022-12-20T05:48:13;11.40;45.00
11239;DHT22;5677;48.488;13.436;2022-12-20T05:50:40;11.40;45.00
11239;DHT22;5677;48.488;13.436;2022-12-20T05:53:09;11.40;45.00
11239;DHT22;5677;48.488;13.436;2022-12-20T05:55:35;11.40;45.00
11239;DHT22;5677;48.488;13.436;2022-12-20T05:58:05;11.40;45.00
11239;DHT22;5677;48.488;13.436;2022-12-20T06:00:31;11.40;45.00
11239;DHT22;5677;48.488;13.436;2022-12-20T06:02:58;11.40;45.00
11239;DHT22;5677;48.488;13.436;2022-12-20T06:05:27;11.40;44.90
11239;DHT22;5677;48.488;13.436;2022-12-20T06:07:54;11.40;45.30
11239;DHT22;5677;48.488;13.436;2022-12-20T06:10:22;11.40;45.50
11239;DHT22;5677;48.488;13.436;2022-12-20T06:12:49;11.40;45.90
11239;DHT22;5677;48.488;13.436;2022-12-20T06:15:16;11.40;45.60
11239;DHT22;5677;48.488;13.436;2022-12-20T06:17:42;11.40;45.40
11239;DHT22;5677;48.488;13.436;2022-12-20T06:20:10;11.40;45.60
11239;DHT22;5677;48.488;13.436;2022-12-20T06:22:39;11.40;40.30
11239;DHT22;5677;48.488;13.436;2022-12-20T06:25:06;11.30;41.20
11239;DHT22;5677;48.488;13.436;2022-12-20T06:27:34;11.20;44.20
11239;DHT22;5677;48.488;13.436;2022-12-20T06:30:00;11.20;37.80
11239;DHT22;5677;48.488;13.436;2022-12-20T06:32:27;10.90;35.90
11239;DHT22;5677;48.488;13.436;2022-12-20T06:34:54;10.90;40.00
11239;DHT22;5677;48.488;13.436;2022-12-20T06:37:21;10.90;42.20
11239;DHT22;5677;48.488;13.436;2022-12-20T06:39:49;10.90;45.40
11239;DHT22;5677;48.488;13.436;2022-12-20T06:42:16;10.90;45.80
11239;DHT22;5677;48.488;13.436;2022-12-20T06:44:43;10.90;46.50
11239;DHT22;5677;48.488;13.436;2022-12-20T06:47:10;11.00;46.70
11239;DHT22;5677;48.488;13.436;2022-12-20T06:49:37;11.10;46.50
11239;DHT22;5677;48.488;13.436;2022-12-20T06:52:04;11.10;46.50
11239;DHT22;5677;48.488;13.436;2022-12-20T06:54:31;11.20;46.40
11239;DHT22;5677;48.488;13.436;2022-12-20T06:56:59;11.20;46.40
11239;DHT22;5677;48.488;13.436;2022-12-20T06:59:25;11.20;46.30
11239;DHT22;5677;48.488;13.436;2022-12-20T07:01:52;11.20;46.40
11239;DHT22;5677;48.488;13.436;2022-12-20T07:04:19;11.30;46.50
11239;DHT22;5677;48.488;13.436;2022-12-20T07:06:46;11.30;46.60
11239;DHT22;5677;48.488;13.436;2022-12-20T07:09:13;11.30;46.60
11239;DHT22;5677;48.488;13.436;2022-12-20T07:11:39;11.30;46.70
11239;DHT22;5677;48.488;13.436;2022-12-20T07:14:09;11.30;46.80
11239;DHT22;5677;48.488;13.436;2022-12-20T07:16:36;11.30;46.80
11239;DHT22;5677;48.488;13.436;2022-12-20T07:19:06;11.30;46.90
11239;DHT22;5677;48.488;13.436;2022-12-20T07:21:33;11.30;47.00
11239;DHT22;5677;48.488;13.436;2022-12-20T07:23:59;11.30;46.80
11239;DHT22;5677;48.488;13.436;2022-12-20T07:26:26;11.30;46.60
11239;DHT22;5677;48.488;13.436;2022-12-20T07:28:53;11.30;46.40
11239;DHT22;5677;48.488;13.436;2022-12-20T07:31:21;11.30;46.30
11239;DHT22;5677;48.488;13.436;2022-12-20T07:33:48;11.30;46.30
11239;DHT22;5677;48.488;13.436;2022-12-20T07:36:15;11.30;46.10
11239;DHT22;5677;48.488;13.436;2022-12-20T07:38:42;11.30;46.10
11239;DHT22;5677;48.488;13.436;2022-12-20T07:41:10;11.30;46.00
11239;DHT22;5677;48.488;13.436;2022-12-20T07:43:37;11.30;45.90
11239;DHT22;5677;48.488;13.436;2022-12-20T07:46:05;11.30;45.10
11239;DHT22;5677;48.488;13.436;2022-12-20T07:48:34;11.30;45.80
11239;DHT22;5677;48.488;13.436;2022-12-20T07:51:04;11.30;45.60
11239;DHT22;5677;48.488;13.436;2022-12-20T07:53:34;11.30;45.50
11239;DHT22;5677;48.488;13.436;2022-12-20T07:56:02;11.30;45.50
11239;DHT22;5677;48.488;13.436;2022-12-20T07:58:31;11.30;45.40
11239;DHT22;5677;48.488;13.436;2022-12-20T08:01:00;11.30;46.80
11239;DHT22;5677;48.488;13.436;2022-12-20T08:03:31;11.30;46.80
11239;DHT22;5677;48.488;13.436;2022-12-20T08:06:04;11.30;47.80
11239;DHT22;5677;48.488;13.436;2022-12-20T08:08:34;11.40;48.20
11239;DHT22;5677;48.488;13.436;2022-12-20T08:11:06;11.40;48.20
11239;DHT22;5677;48.488;13.436;2022-12-20T08:13:34;11.40;48.00
11239;DHT22;5677;48.488;13.436;2022-12-20T08:16:00;11.40;48.10
11239;DHT22;5677;48.488;13.436;2022-12-20T08:18:27;11.40;48.00
11239;DHT22;5677;48.488;13.436;2022-12-20T08:20:54;11.40;48.00
11239;DHT22;5677;48.488;13.436;2022-12-20T08:23:22;11.40;47.90
11239;DHT22;5677;48.488;13.436;2022-12-20T08:25:49;11.40;47.90
11239;DHT22;5677;48.488;13.436;2022-12-20T08:28:16;11.50;48.00
11239;DHT22;5677;48.488;13.436;2022-12-20T08:30:42;11.50;48.00
11239;DHT22;5677;48.488;13.436;2022-12-20T08:33:09;11.40;47.90
11239;DHT22;5677;48.488;13.436;2022-12-20T08:35:36;11.50;48.00
11239;DHT22;5677;48.488;13.436;2022-12-20T08:38:03;11.50;48.10
11239;DHT22;5677;48.488;13.436;2022-12-20T08:40:31;11.50;47.90
11239;DHT22;5677;48.488;13.436;2022-12-20T08:42:58;11.50;47.90
11239;DHT22;5677;48.488;13.436;2022-12-20T08:45:25;11.50;47.90
11239;DHT22;5677;48.488;13.436;2022-12-20T08:47:52;11.50;47.80
11239;DHT22;5677;48.488;13.436;2022-12-20T08:50:21;11.50;47.70
11239;DHT22;5677;48.488;13.436;2022-12-20T08:52:48;11.50;47.70
11239;DHT22;5677;48.488;13.436;2022-12-20T08:55:14;11.50;47.90
11239;DHT22;5677;48.488;13.436;2022-12-20T08:57:43;11.60;49.40
11239;DHT22;5677;48.488;13.436;2022-12-20T09:00:10;11.60;50.50
11239;DHT22;5677;48.488;13.436;2022-12-20T09:02:37;11.60;50.30
11239;DHT22;5677;48.488;13.436;2022-12-20T09:05:06;11.60;48.90
11239;DHT22;5677;48.488;13.436;2022-12-20T09:07:33;11.60;48.80
11239;DHT22;5677;48.488;13.436;2022-12-20T09:09:59;11.60;48.20
11239;DHT22;5677;48.488;13.436;2022-12-20T09:12:26;11.60;47.90
11239;DHT22;5677;48.488;13.436;2022-12-20T09:14:55;11.60;46.90
11239;DHT22;5677;48.488;13.436;2022-12-20T09:17:22;11.60;46.70
11239;DHT22;5677;48.488;13.436;2022-12-20T09:19:48;11.50;46.70
11239;DHT22;5677;48.488;13.436;2022-12-20T09:22:15;11.50;46.50
11239;DHT22;5677;48.488;13.436;2022-12-20T09:24:42;11.50;46.40
11239;DHT22;5677;48.488;13.436;2022-12-20T09:27:08;11.50;47.30
11239;DHT22;5677;48.488;13.436;2022-12-20T09:29:35;11.50;47.50
11239;DHT22;5677;48.488;13.436;2022-12-20T09:32:04;11.50;47.30
11239;DHT22;5677;48.488;13.436;2022-12-20T09:34:30;11.50;46.80
11239;DHT22;5677;48.488;13.436;2022-12-20T09:36:57;11.50;47.00
11239;DHT22;5677;48.488;13.436;2022-12-20T09:39:24;11.50;47.20
11239;DHT22;5677;48.488;13.436;2022-12-20T09:41:51;11.50;48.40
11239;DHT22;5677;48.488;13.436;2022-12-20T09:44:21;11.50;47.90
11239;DHT22;5677;48.488;13.436;2022-12-20T09:46:53;11.50;47.40
11239;DHT22;5677;48.488;13.436;2022-12-20T09:49:26;11.50;47.40
11239;DHT22;5677;48.488;13.436;2022-12-20T09:52:23;11.60;48.40
11239;DHT22;5677;48.488;13.436;2022-12-20T09:54:58;11.60;48.00
11239;DHT22;5677;48.488;13.436;2022-12-20T09:57:31;11.60;47.70
11239;DHT22;5677;48.488;13.436;2022-12-20T10:00:01;11.60;47.40
11239;DHT22;5677;48.488;13.436;2022-12-20T10:02:29;11.50;47.30
11239;DHT22;5677;48.488;13.436;2022-12-20T10:04:57;11.50;47.10
11239;DHT22;5677;48.488;13.436;2022-12-20T10:07:32;11.50;47.60
11239;DHT22;5677;48.488;13.436;2022-12-20T10:10:20;11.60;47.50
11239;DHT22;5677;48.488;13.436;2022-12-20T10:12:58;11.50;39.70
11239;DHT22;5677;48.488;13.436;2022-12-20T10:15:33;11.40;43.30
11239;DHT22;5677;48.488;13.436;2022-12-20T10:18:17;11.40;45.20
11239;DHT22;5677;48.488;13.436;2022-12-20T10:20:56;11.40;46.30
11239;DHT22;5677;48.488;13.436;2022-12-20T10:23:29;11.40;46.50
11239;DHT22;5677;48.488;13.436;2022-12-20T10:25:58;11.50;46.20
11239;DHT22;5677;48.488;13.436;2022-12-20T10:28:27;11.50;45.80
11239;DHT22;5677;48.488;13.436;2022-12-20T10:30:58;11.40;41.00
11239;DHT22;5677;48.488;13.436;2022-12-20T10:33:27;11.40;41.20
11239;DHT22;5677;48.488;13.436;2022-12-20T10:36:17;11.30;43.50
11239;DHT22;5677;48.488;13.436;2022-12-20T10:38:46;11.30;45.90
11239;DHT22;5677;48.488;13.436;2022-12-20T10:41:15;11.40;46.10
11239;DHT22;5677;48.488;13.436;2022-12-20T10:43:44;11.40;46.80
11239;DHT22;5677;48.488;13.436;2022-12-20T10:46:13;11.40;48.20
11239;DHT22;5677;48.488;13.436;2022-12-20T10:48:43;11.40;48.10
11239;DHT22;5677;48.488;13.436;2022-12-20T10:51:17;11.50;47.70
11239;DHT22;5677;48.488;13.436;2022-12-20T10:53:54;11.50;47.50
11239;DHT22;5677;48.488;13.436;2022-12-20T10:56:23;11.50;47.90
11239;DHT22;5677;48.488;13.436;2022-12-20T10:58:58;11.60;47.50
11239;DHT22;5677;48.488;13.436;2022-12-20T11:01:28;11.60;47.70
11239;DHT22;5677;48.488;13.436;2022-12-20T11:03:58;11.60;51.50
11239;DHT22;5677;48.488;13.436;2022-12-20T11:06:38;11.60;50.50
11239;DHT22;5677;48.488;13.436;2022-12-20T11:09:21;11.60;49.60
11239;DHT22;5677;48.488;13.436;2022-12-20T11:11:57;11.60;49.30
11239;DHT22;5677;48.488;13.436;2022-12-20T11:14:24;11.70;48.90
11239;DHT22;5677;48.488;13.436;2022-12-20T11:16:53;11.60;48.40
11239;DHT22;5677;48.488;13.436;2022-12-20T11:19:38;11.60;48.20
11239;DHT22;5677;48.488;13.436;2022-12-20T11:22:13;11.60;48.10
11239;DHT22;5677;48.488;13.436;2022-12-20T11:24:50;11.60;48.10
11239;DHT22;5677;48.488;13.436;2022-12-20T11:27:27;11.60;47.80
11239;DHT22;5677;48.488;13.436;2022-12-20T11:30:08;11.60;47.90
11239;DHT22;5677;48.488;13.436;2022-12-20T11:32:49;11.60;47.90
11239;DHT22;5677;48.488;13.436;2022-12-20T11:35:22;11.60;47.80
11239;DHT22;5677;48.488;13.436;2022-12-20T11:37:58;11.60;47.60
11239;DHT22;5677;48.488;13.436;2022-12-20T11:40:30;11.60;47.40
11239;DHT22;5677;48.488;13.436;2022-12-20T11:43:18;11.60;47.70
11239;DHT22;5677;48.488;13.436;2022-12-20T11:46:06;11.60;48.20
11239;DHT22;5677;48.488;13.436;2022-12-20T11:48:48;11.60;48.70
11239;DHT22;5677;48.488;13.436;2022-12-20T11:51:21;11.70;48.40
11239;DHT22;5677;48.488;13.436;2022-12-20T11:53:55;11.70;48.50
11239;DHT22;5677;48.488;13.436;2022-12-20T11:56:28;11.70;48.70
11239;DHT22;5677;48.488;13.436;2022-12-20T11:59:00;11.80;49.00
11239;DHT22;5677;48.488;13.436;2022-12-20T12:01:31;11.80;49.00
11239;DHT22;5677;48.488;13.436;2022-12-20T12:04:06;11.80;49.90
11239;DHT22;5677;48.488;13.436;2022-12-20T12:06:37;11.80;49.80
11239;DHT22;5677;48.488;13.436;2022-12-20T12:09:12;11.80;50.00
11239;DHT22;5677;48.488;13.436;2022-12-20T12:11:43;11.80;50.20
11239;DHT22;5677;48.488;13.436;2022-12-20T12:14:17;11.80;50.20
11239;DHT22;5677;48.488;13.436;2022-12-20T12:16:49;11.80;49.60
11239;DHT22;5677;48.488;13.436;2022-12-20T12:19:17;11.80;49.10
11239;DHT22;5677;48.488;13.436;2022-12-20T12:21:48;11.80;49.50
11239;DHT22;5677;48.488;13.436;2022-12-20T12:24:22;11.80;48.60
11239;DHT22;5677;48.488;13.436;2022-12-20T12:26:51;11.80;48.50
11239;DHT22;5677;48.488;13.436;2022-12-20T12:29:20;11.80;48.30
11239;DHT22;5677;48.488;13.436;2022-12-20T12:31:50;11.80;48.20
11239;DHT22;5677;48.488;13.436;2022-12-20T12:34:29;11.80;48.10
11239;DHT22;5677;48.488;13.436;2022-12-20T12:37:31;11.80;47.90
11239;DHT22;5677;48.488;13.436;2022-12-20T12:40:25;11.70;47.80
11239;DHT22;5677;48.488;13.436;2022-12-20T12:43:11;11.80;47.70
11239;DHT22;5677;48.488;13.436;2022-12-20T12:45:45;11.70;47.60
11239;DHT22;5677;48.488;13.436;2022-12-20T12:48:17;11.70;47.50
11239;DHT22;5677;48.488;13.436;2022-12-20T12:50:48;11.70;47.40
11239;DHT22;5677;48.488;13.436;2022-12-20T12:53:18;11.70;47.30
11239;DHT22;5677;48.488;13.436;2022-12-20T12:55:48;11.70;47.30
11239;DHT22;5677;48.488;13.436;2022-12-20T12:58:36;11.70;47.20
11239;DHT22;5677;48.488;13.436;2022-12-20T13:01:05;11.70;47.10
11239;DHT22;5677;48.488;13.436;2022-12-20T13:03:39;11.70;47.00
11239;DHT22;5677;48.488;13.436;2022-12-20T13:09:19;11.70;46.90
11239;DHT22;5677;48.488;13.436;2022-12-20T13:11:48;11.70;46.90
11239;DHT22;5677;48.488;13.436;2022-12-20T13:14:46;11.70;46.80
11239;DHT22;5677;48.488;13.436;2022-12-20T13:17:44;11.70;46.80
11239;DHT22;5677;48.488;13.436;2022-12-20T13:20:17;11.70;46.80
11239;DHT22;5677;48.488;13.436;2022-12-20T13:23:11;11.70;46.70
11239;DHT22;5677;48.488;13.436;2022-12-20T13:25:41;11.70;46.70
11239;DHT22;5677;48.488;13.436;2022-12-20T13:28:44;11.70;46.60
11239;DHT22;5677;48.488;13.436;2022-12-20T13:31:31;11.70;46.70
11239;DHT22;5677;48.488;13.436;2022-12-20T13:33:59;11.70;46.60
11239;DHT22;5677;48.488;13.436;2022-12-20T13:36:33;11.70;46.60
11239;DHT22;5677;48.488;13.436;2022-12-20T13:41:45;11.60;46.40
11239;DHT22;5677;48.488;13.436;2022-12-20T13:44:39;11.60;46.50
11239;DHT22;5677;48.488;13.436;2022-12-20T13:49:59;11.60;46.40
11239;DHT22;5677;48.488;13.436;2022-12-20T13:52:28;11.60;46.40
11239;DHT22;5677;48.488;13.436;2022-12-20T13:54:57;11.60;46.30
11239;DHT22;5677;48.488;13.436;2022-12-20T13:57:30;11.60;46.30
11239;DHT22;5677;48.488;13.436;2022-12-20T14:00:03;11.60;46.30
11239;DHT22;5677;48.488;13.436;2022-12-20T14:02:34;11.60;46.30
11239;DHT22;5677;48.488;13.436;2022-12-20T14:05:05;11.60;46.30
11239;DHT22;5677;48.488;13.436;2022-12-20T14:07:34;11.60;46.30
11239;DHT22;5677;48.488;13.436;2022-12-20T14:10:11;11.60;46.20
11239;DHT22;5677;48.488;13.436;2022-12-20T14:12:43;11.60;46.20
11239;DHT22;5677;48.488;13.436;2022-12-20T14:15:22;11.60;46.20
11239;DHT22;5677;48.488;13.436;2022-12-20T14:17:49;11.60;46.20
11239;DHT22;5677;48.488;13.436;2022-12-20T14:20:22;11.60;46.20
11239;DHT22;5677;48.488;13.436;2022-12-20T14:22:54;11.60;46.20
11239;DHT22;5677;48.488;13.436;2022-12-20T14:25:28;11.60;46.20
11239;DHT22;5677;48.488;13.436;2022-12-20T14:27:57;11.60;46.10
11239;DHT22;5677;48.488;13.436;2022-12-20T14:30:31;11.60;46.20
11239;DHT22;5677;48.488;13.436;2022-12-20T14:33:00;11.60;46.20
11239;DHT22;5677;48.488;13.436;2022-12-20T14:35:27;11.60;46.10
11239;DHT22;5677;48.488;13.436;2022-12-20T14:37:56;11.60;46.10
11239;DHT22;5677;48.488;13.436;2022-12-20T14:40:24;11.60;46.10
11239;DHT22;5677;48.488;13.436;2022-12-20T14:42:51;11.60;46.10
11239;DHT22;5677;48.488;13.436;2022-12-20T14:45:22;11.60;46.10
11239;DHT22;5677;48.488;13.436;2022-12-20T14:47:55;11.60;46.10
11239;DHT22;5677;48.488;13.436;2022-12-20T14:50:34;11.60;46.10
11239;DHT22;5677;48.488;13.436;2022-12-20T14:53:02;11.60;46.10
11239;DHT22;5677;48.488;13.436;2022-12-20T14:55:33;11.60;46.10
11239;DHT22;5677;48.488;13.436;2022-12-20T14:58:05;11.60;46.10
11239;DHT22;5677;48.488;13.436;2022-12-20T15:00:33;11.60;46.10
11239;DHT22;5677;48.488;13.436;2022-12-20T15:03:10;11.60;46.10
11239;DHT22;5677;48.488;13.436;2022-12-20T15:05:48;11.60;46.10
11239;DHT22;5677;48.488;13.436;2022-12-20T15:08:19;11.60;46.00
11239;DHT22;5677;48.488;13.436;2022-12-20T15:10:50;11.60;46.10
11239;DHT22;5677;48.488;13.436;2022-12-20T15:13:19;11.60;46.10
11239;DHT22;5677;48.488;13.436;2022-12-20T15:15:47;11.60;46.00
11239;DHT22;5677;48.488;13.436;2022-12-20T15:18:16;11.60;46.00
11239;DHT22;5677;48.488;13.436;2022-12-20T15:20:45;11.60;46.00
11239;DHT22;5677;48.488;13.436;2022-12-20T15:23:15;11.60;46.10
11239;DHT22;5677;48.488;13.436;2022-12-20T15:25:42;11.60;46.00
11239;DHT22;5677;48.488;13.436;2022-12-20T15:28:15;11.60;46.00
11239;DHT22;5677;48.488;13.436;2022-12-20T15:30:43;11.60;46.00
11239;DHT22;5677;48.488;13.436;2022-12-20T15:33:16;11.60;46.00
11239;DHT22;5677;48.488;13.436;2022-12-20T15:35:45;11.60;46.00
11239;DHT22;5677;48.488;13.436;2022-12-20T15:38:16;11.60;46.00
11239;DHT22;5677;48.488;13.436;2022-12-20T15:40:44;11.60;46.00
11239;DHT22;5677;48.488;13.436;2022-12-20T15:43:13;11.50;46.00
11239;DHT22;5677;48.488;13.436;2022-12-20T15:45:41;11.60;45.90
11239;DHT22;5677;48.488;13.436;2022-12-20T15:48:13;11.60;46.00
11239;DHT22;5677;48.488;13.436;2022-12-20T15:50:48;11.50;46.00
11239;DHT22;5677;48.488;13.436;2022-12-20T15:53:18;11.50;45.90
11239;DHT22;5677;48.488;13.436;2022-12-20T15:55:51;11.60;45.90
11239;DHT22;5677;48.488;13.436;2022-12-20T15:58:18;11.60;45.90
11239;DHT22;5677;48.488;13.436;2022-12-20T16:00:46;11.60;46.60